sensor_id;sensor_type;location;lat;lon;timestamp;temperature;humidity
78694;SHT31;68029;51.978;5.646;2023-06-01T00:01:58;15.3;61.6
78694;SHT31;68029;51.978;5.646;2023-06-01T00:04:27;15.3;61.8
78694;SHT31;68029;51.978;5.646;2023-06-01T00:06:55;15.3;62.0
78694;SHT31;68029;51.978;5.646;2023-06-01T00:09:26;15.2;62.1
78694;SHT31;68029;51.978;5.646;2023-06-01T00:11:55;15.2;62.0
78694;SHT31;68029;51.978;5.646;2023-06-01T00:14:24;15.2;61.6
78694;SHT31;68029;51.978;5.646;2023-06-01T00:16:52;15.2;61.5
78694;SHT31;68029;51.978;5.646;2023-06-01T00:19:22;15.2;61.6
78694;SHT31;68029;51.978;5.646;2023-06-01T00:21:54;15.2;61.6
78694;SHT31;68029;51.978;5.646;2023-06-01T00:24:23;15.1;61.0
78694;SHT31;68029;51.978;5.646;2023-06-01T00:26:55;15.1;61.0
78694;SHT31;68029;51.978;5.646;2023-06-01T00:29:23;15.0;61.5
78694;SHT31;68029;51.978;5.646;2023-06-01T00:31:52;15.0;61.8
78694;SHT31;68029;51.978;5.646;2023-06-01T00:34:21;14.9;61.4
78694;SHT31;68029;51.978;5.646;2023-06-01T00:36:50;14.9;61.6
78694;SHT31;68029;51.978;5.646;2023-06-01T00:39:18;14.8;61.7
78694;SHT31;68029;51.978;5.646;2023-06-01T00:41:47;14.8;61.6
78694;SHT31;68029;51.978;5.646;2023-06-01T00:44:15;14.8;61.5
78694;SHT31;68029;51.978;5.646;2023-06-01T00:46:46;14.7;61.4
78694;SHT31;68029;51.978;5.646;2023-06-01T00:49:15;14.7;61.9
78694;SHT31;68029;51.978;5.646;2023-06-01T00:51:43;14.7;61.8
78694;SHT31;68029;51.978;5.646;2023-06-01T00:54:14;14.6;62.0
78694;SHT31;68029;51.978;5.646;2023-06-01T00:56:43;14.6;62.1
78694;SHT31;68029;51.978;5.646;2023-06-01T00:59:13;14.6;62.1
78694;SHT31;68029;51.978;5.646;2023-06-01T01:01:42;14.6;62.2
78694;SHT31;68029;51.978;5.646;2023-06-01T01:04:10;14.5;62.4
78694;SHT31;68029;51.978;5.646;2023-06-01T01:06:49;14.5;62.7
78694;SHT31;68029;51.978;5.646;2023-06-01T01:09:29;14.5;62.9
78694;SHT31;68029;51.978;5.646;2023-06-01T01:12:01;14.5;62.6
78694;SHT31;68029;51.978;5.646;2023-06-01T01:14:42;14.5;62.5
78694;SHT31;68029;51.978;5.646;2023-06-01T01:17:22;14.5;62.7
78694;SHT31;68029;51.978;5.646;2023-06-01T01:20:03;14.5;62.4
78694;SHT31;68029;51.978;5.646;2023-06-01T01:24:43;14.5;62.5
78694;SHT31;68029;51.978;5.646;2023-06-01T01:27:29;14.4;62.9
78694;SHT31;68029;51.978;5.646;2023-06-01T01:30:02;14.4;62.7
78694;SHT31;68029;51.978;5.646;2023-06-01T01:32:35;14.4;62.7
78694;SHT31;68029;51.978;5.646;2023-06-01T01:35:07;14.4;62.8
78694;SHT31;68029;51.978;5.646;2023-06-01T01:37:41;14.4;62.9
78694;SHT31;68029;51.978;5.646;2023-06-01T01:40:12;14.3;62.9
78694;SHT31;68029;51.978;5.646;2023-06-01T01:42:41;14.3;63.1
78694;SHT31;68029;51.978;5.646;2023-06-01T01:45:11;14.3;63.2
78694;SHT31;68029;51.978;5.646;2023-06-01T01:47:46;14.3;63.5
78694;SHT31;68029;51.978;5.646;2023-06-01T01:50:20;14.3;63.5
78694;SHT31;68029;51.978;5.646;2023-06-01T01:52:54;14.3;63.7
78694;SHT31;68029;51.978;5.646;2023-06-01T01:55:24;14.3;63.4
78694;SHT31;68029;51.978;5.646;2023-06-01T01:57:56;14.4;63.7
78694;SHT31;68029;51.978;5.646;2023-06-01T02:00:27;14.4;63.4
78694;SHT31;68029;51.978;5.646;2023-06-01T02:02:57;14.4;63.0
78694;SHT31;68029;51.978;5.646;2023-06-01T02:05:25;14.4;62.8
78694;SHT31;68029;51.978;5.646;2023-06-01T02:07:54;14.4;62.9
78694;SHT31;68029;51.978;5.646;2023-06-01T02:10:23;14.4;63.0
78694;SHT31;68029;51.978;5.646;2023-06-01T02:12:51;14.4;63.2
78694;SHT31;68029;51.978;5.646;2023-06-01T02:15:20;14.4;63.0
78694;SHT31;68029;51.978;5.646;2023-06-01T02:17:49;14.4;62.6
78694;SHT31;68029;51.978;5.646;2023-06-01T02:20:17;14.3;62.7
78694;SHT31;68029;51.978;5.646;2023-06-01T02:22:46;14.3;62.9
78694;SHT31;68029;51.978;5.646;2023-06-01T02:25:14;14.3;63.0
78694;SHT31;68029;51.978;5.646;2023-06-01T02:27:49;14.3;62.9
78694;SHT31;68029;51.978;5.646;2023-06-01T02:30:18;14.3;63.0
78694;SHT31;68029;51.978;5.646;2023-06-01T02:32:46;14.3;63.1
78694;SHT31;68029;51.978;5.646;2023-06-01T02:35:15;14.3;63.3
78694;SHT31;68029;51.978;5.646;2023-06-01T02:37:44;14.2;63.3
78694;SHT31;68029;51.978;5.646;2023-06-01T02:40:12;14.2;63.4
78694;SHT31;68029;51.978;5.646;2023-06-01T02:42:41;14.2;63.1
78694;SHT31;68029;51.978;5.646;2023-06-01T02:45:10;14.2;62.8
78694;SHT31;68029;51.978;5.646;2023-06-01T02:47:40;14.2;62.9
78694;SHT31;68029;51.978;5.646;2023-06-01T02:50:11;14.1;63.2
78694;SHT31;68029;51.978;5.646;2023-06-01T02:52:39;14.1;63.2
78694;SHT31;68029;51.978;5.646;2023-06-01T02:55:09;14.1;63.4
78694;SHT31;68029;51.978;5.646;2023-06-01T02:57:38;14.0;63.5
78694;SHT31;68029;51.978;5.646;2023-06-01T03:00:08;14.0;63.5
78694;SHT31;68029;51.978;5.646;2023-06-01T03:02:42;14.0;63.7
78694;SHT31;68029;51.978;5.646;2023-06-01T03:05:12;14.0;64.0
78694;SHT31;68029;51.978;5.646;2023-06-01T03:07:44;13.9;63.9
78694;SHT31;68029;51.978;5.646;2023-06-01T03:10:13;13.9;63.8
78694;SHT31;68029;51.978;5.646;2023-06-01T03:12:41;13.9;64.0
78694;SHT31;68029;51.978;5.646;2023-06-01T03:15:11;13.9;64.1
78694;SHT31;68029;51.978;5.646;2023-06-01T03:17:39;13.9;63.7
78694;SHT31;68029;51.978;5.646;2023-06-01T03:20:08;13.9;64.2
78694;SHT31;68029;51.978;5.646;2023-06-01T03:22:41;13.9;63.8
78694;SHT31;68029;51.978;5.646;2023-06-01T03:25:11;13.9;63.6
78694;SHT31;68029;51.978;5.646;2023-06-01T03:27:40;13.9;63.6
78694;SHT31;68029;51.978;5.646;2023-06-01T03:30:10;13.9;63.5
78694;SHT31;68029;51.978;5.646;2023-06-01T03:32:41;13.9;63.4
78694;SHT31;68029;51.978;5.646;2023-06-01T03:35:12;13.9;63.2
78694;SHT31;68029;51.978;5.646;2023-06-01T03:37:43;13.9;62.9
78694;SHT31;68029;51.978;5.646;2023-06-01T03:40:12;13.9;63.0
78694;SHT31;68029;51.978;5.646;2023-06-01T03:42:44;13.9;62.9
78694;SHT31;68029;51.978;5.646;2023-06-01T03:45:14;13.8;62.9
78694;SHT31;68029;51.978;5.646;2023-06-01T03:47:45;13.8;63.2
78694;SHT31;68029;51.978;5.646;2023-06-01T03:50:14;13.8;63.3
78694;SHT31;68029;51.978;5.646;2023-06-01T03:52:44;13.8;63.4
78694;SHT31;68029;51.978;5.646;2023-06-01T03:55:13;13.7;63.7
78694;SHT31;68029;51.978;5.646;2023-06-01T03:57:43;13.7;63.9
78694;SHT31;68029;51.978;5.646;2023-06-01T04:00:13;13.7;64.0
78694;SHT31;68029;51.978;5.646;2023-06-01T04:02:51;13.7;64.0
78694;SHT31;68029;51.978;5.646;2023-06-01T04:05:22;13.7;64.0
78694;SHT31;68029;51.978;5.646;2023-06-01T04:07:53;13.7;63.9
78694;SHT31;68029;51.978;5.646;2023-06-01T04:10:23;13.7;64.2
78694;SHT31;68029;51.978;5.646;2023-06-01T04:12:52;13.7;64.2
78694;SHT31;68029;51.978;5.646;2023-06-01T04:15:21;13.7;64.2
78694;SHT31;68029;51.978;5.646;2023-06-01T04:17:50;13.7;63.8
78694;SHT31;68029;51.978;5.646;2023-06-01T04:20:18;13.7;64.0
78694;SHT31;68029;51.978;5.646;2023-06-01T04:22:47;13.7;64.3
78694;SHT31;68029;51.978;5.646;2023-06-01T04:25:16;13.7;64.0
78694;SHT31;68029;51.978;5.646;2023-06-01T04:27:48;13.7;63.9
78694;SHT31;68029;51.978;5.646;2023-06-01T04:30:17;13.7;64.0
78694;SHT31;68029;51.978;5.646;2023-06-01T04:32:47;13.7;64.2
78694;SHT31;68029;51.978;5.646;2023-06-01T04:35:16;13.7;64.6
78694;SHT31;68029;51.978;5.646;2023-06-01T04:37:45;13.8;64.1
78694;SHT31;68029;51.978;5.646;2023-06-01T04:40:15;13.8;64.1
78694;SHT31;68029;51.978;5.646;2023-06-01T04:42:44;13.8;63.6
78694;SHT31;68029;51.978;5.646;2023-06-01T04:45:23;13.8;63.5
78694;SHT31;68029;51.978;5.646;2023-06-01T04:47:52;13.8;63.4
78694;SHT31;68029;51.978;5.646;2023-06-01T04:50:24;13.8;63.7
78694;SHT31;68029;51.978;5.646;2023-06-01T04:52:55;13.8;64.2
78694;SHT31;68029;51.978;5.646;2023-06-01T04:55:23;13.9;64.0
78694;SHT31;68029;51.978;5.646;2023-06-01T04:57:52;13.9;64.5
78694;SHT31;68029;51.978;5.646;2023-06-01T05:00:21;13.9;64.4
78694;SHT31;68029;51.978;5.646;2023-06-01T05:02:49;14.0;64.6
78694;SHT31;68029;51.978;5.646;2023-06-01T05:05:20;14.0;63.7
78694;SHT31;68029;51.978;5.646;2023-06-01T05:07:49;14.1;64.4
78694;SHT31;68029;51.978;5.646;2023-06-01T05:10:18;14.1;64.0
78694;SHT31;68029;51.978;5.646;2023-06-01T05:12:46;14.1;63.3
78694;SHT31;68029;51.978;5.646;2023-06-01T05:15:17;14.2;62.8
78694;SHT31;68029;51.978;5.646;2023-06-01T05:17:46;14.2;62.4
78694;SHT31;68029;51.978;5.646;2023-06-01T05:20:14;14.3;62.5
78694;SHT31;68029;51.978;5.646;2023-06-01T05:22:43;14.3;62.3
78694;SHT31;68029;51.978;5.646;2023-06-01T05:25:12;14.3;62.2
78694;SHT31;68029;51.978;5.646;2023-06-01T05:27:40;14.4;62.4
78694;SHT31;68029;51.978;5.646;2023-06-01T05:30:10;14.4;62.8
78694;SHT31;68029;51.978;5.646;2023-06-01T05:32:39;14.4;62.7
78694;SHT31;68029;51.978;5.646;2023-06-01T05:35:09;14.4;61.8
78694;SHT31;68029;51.978;5.646;2023-06-01T05:37:39;14.5;62.2
78694;SHT31;68029;51.978;5.646;2023-06-01T05:40:09;14.5;61.7
78694;SHT31;68029;51.978;5.646;2023-06-01T05:42:39;14.5;61.3
78694;SHT31;68029;51.978;5.646;2023-06-01T05:45:09;14.6;61.6
78694;SHT31;68029;51.978;5.646;2023-06-01T05:47:38;14.6;61.6
78694;SHT31;68029;51.978;5.646;2023-06-01T05:50:07;14.6;61.7
78694;SHT31;68029;51.978;5.646;2023-06-01T05:52:36;14.6;62.3
78694;SHT31;68029;51.978;5.646;2023-06-01T05:55:06;14.6;62.0
78694;SHT31;68029;51.978;5.646;2023-06-01T05:57:35;14.7;61.2
78694;SHT31;68029;51.978;5.646;2023-06-01T06:00:05;14.7;60.8
78694;SHT31;68029;51.978;5.646;2023-06-01T06:02:36;14.7;61.0
78694;SHT31;68029;51.978;5.646;2023-06-01T06:05:06;14.7;60.5
78694;SHT31;68029;51.978;5.646;2023-06-01T06:07:35;14.7;60.8
78694;SHT31;68029;51.978;5.646;2023-06-01T06:10:04;14.8;60.8
78694;SHT31;68029;51.978;5.646;2023-06-01T06:12:34;14.8;60.6
78694;SHT31;68029;51.978;5.646;2023-06-01T06:15:03;14.8;60.9
78694;SHT31;68029;51.978;5.646;2023-06-01T06:17:32;14.8;60.4
78694;SHT31;68029;51.978;5.646;2023-06-01T06:20:00;14.8;61.0
78694;SHT31;68029;51.978;5.646;2023-06-01T06:22:33;14.9;60.8
78694;SHT31;68029;51.978;5.646;2023-06-01T06:25:02;15.0;60.4
78694;SHT31;68029;51.978;5.646;2023-06-01T06:27:30;15.0;60.2
78694;SHT31;68029;51.978;5.646;2023-06-01T06:29:59;15.1;60.0
78694;SHT31;68029;51.978;5.646;2023-06-01T06:32:27;15.1;60.3
78694;SHT31;68029;51.978;5.646;2023-06-01T06:34:56;15.2;59.8
78694;SHT31;68029;51.978;5.646;2023-06-01T06:37:25;15.3;60.1
78694;SHT31;68029;51.978;5.646;2023-06-01T06:39:53;15.3;59.7
78694;SHT31;68029;51.978;5.646;2023-06-01T06:42:23;15.4;59.8
78694;SHT31;68029;51.978;5.646;2023-06-01T06:44:52;15.5;59.7
78694;SHT31;68029;51.978;5.646;2023-06-01T06:47:23;15.7;59.7
78694;SHT31;68029;51.978;5.646;2023-06-01T06:49:52;15.9;59.2
78694;SHT31;68029;51.978;5.646;2023-06-01T06:52:21;16.2;59.3
78694;SHT31;68029;51.978;5.646;2023-06-01T06:54:49;16.5;58.4
78694;SHT31;68029;51.978;5.646;2023-06-01T06:57:18;16.8;56.7
78694;SHT31;68029;51.978;5.646;2023-06-01T06:59:46;17.0;55.5
78694;SHT31;68029;51.978;5.646;2023-06-01T07:02:15;17.3;54.9
78694;SHT31;68029;51.978;5.646;2023-06-01T07:04:44;17.4;54.6
78694;SHT31;68029;51.978;5.646;2023-06-01T07:07:13;17.5;53.0
78694;SHT31;68029;51.978;5.646;2023-06-01T07:09:41;17.6;52.8
78694;SHT31;68029;51.978;5.646;2023-06-01T07:12:10;17.6;53.4
78694;SHT31;68029;51.978;5.646;2023-06-01T07:14:39;17.6;53.0
78694;SHT31;68029;51.978;5.646;2023-06-01T07:17:07;17.6;52.7
78694;SHT31;68029;51.978;5.646;2023-06-01T07:19:37;17.6;52.3
78694;SHT31;68029;51.978;5.646;2023-06-01T07:22:06;17.5;53.4
78694;SHT31;68029;51.978;5.646;2023-06-01T07:24:37;17.5;54.6
78694;SHT31;68029;51.978;5.646;2023-06-01T07:27:06;17.6;53.2
78694;SHT31;68029;51.978;5.646;2023-06-01T07:29:35;17.7;53.9
78694;SHT31;68029;51.978;5.646;2023-06-01T07:32:04;17.8;52.9
78694;SHT31;68029;51.978;5.646;2023-06-01T07:34:33;18.0;54.3
78694;SHT31;68029;51.978;5.646;2023-06-01T07:37:02;18.2;54.2
78694;SHT31;68029;51.978;5.646;2023-06-01T07:39:31;18.6;52.4
78694;SHT31;68029;51.978;5.646;2023-06-01T07:41:59;18.9;50.5
78694;SHT31;68029;51.978;5.646;2023-06-01T07:44:28;19.0;49.1
78694;SHT31;68029;51.978;5.646;2023-06-01T07:46:58;19.1;49.6
78694;SHT31;68029;51.978;5.646;2023-06-01T07:49:27;19.2;50.1
78694;SHT31;68029;51.978;5.646;2023-06-01T07:51:56;19.4;50.7
78694;SHT31;68029;51.978;5.646;2023-06-01T07:54:25;19.5;48.6
78694;SHT31;68029;51.978;5.646;2023-06-01T07:56:53;19.7;49.2
78694;SHT31;68029;51.978;5.646;2023-06-01T07:59:23;19.9;49.2
78694;SHT31;68029;51.978;5.646;2023-06-01T08:01:52;20.2;48.3
78694;SHT31;68029;51.978;5.646;2023-06-01T08:04:22;20.4;47.0
78694;SHT31;68029;51.978;5.646;2023-06-01T08:06:51;20.5;46.3
78694;SHT31;68029;51.978;5.646;2023-06-01T08:09:22;20.6;47.1
78694;SHT31;68029;51.978;5.646;2023-06-01T08:11:52;20.7;45.8
78694;SHT31;68029;51.978;5.646;2023-06-01T08:14:21;20.9;46.0
78694;SHT31;68029;51.978;5.646;2023-06-01T08:16:51;21.0;45.6
78694;SHT31;68029;51.978;5.646;2023-06-01T08:19:20;21.2;46.0
78694;SHT31;68029;51.978;5.646;2023-06-01T08:21:49;21.3;45.8
78694;SHT31;68029;51.978;5.646;2023-06-01T08:24:18;21.4;44.3
78694;SHT31;68029;51.978;5.646;2023-06-01T08:26:54;21.5;44.3
78694;SHT31;68029;51.978;5.646;2023-06-01T08:29:24;21.6;44.3
78694;SHT31;68029;51.978;5.646;2023-06-01T08:31:53;21.7;44.3
78694;SHT31;68029;51.978;5.646;2023-06-01T08:34:25;21.9;44.6
78694;SHT31;68029;51.978;5.646;2023-06-01T08:36:53;22.0;42.4
78694;SHT31;68029;51.978;5.646;2023-06-01T08:39:24;22.2;43.0
78694;SHT31;68029;51.978;5.646;2023-06-01T08:42:06;22.3;41.9
78694;SHT31;68029;51.978;5.646;2023-06-01T08:44:40;22.4;42.4
78694;SHT31;68029;51.978;5.646;2023-06-01T08:47:09;22.6;41.0
78694;SHT31;68029;51.978;5.646;2023-06-01T08:49:41;22.7;41.9
78694;SHT31;68029;51.978;5.646;2023-06-01T08:52:12;22.7;41.9
78694;SHT31;68029;51.978;5.646;2023-06-01T08:54:41;22.9;42.4
78694;SHT31;68029;51.978;5.646;2023-06-01T08:57:11;23.0;41.0
78694;SHT31;68029;51.978;5.646;2023-06-01T08:59:40;23.1;41.5
78694;SHT31;68029;51.978;5.646;2023-06-01T09:02:09;23.3;40.8
78694;SHT31;68029;51.978;5.646;2023-06-01T09:04:39;23.4;40.7
78694;SHT31;68029;51.978;5.646;2023-06-01T09:07:11;23.4;40.8
78694;SHT31;68029;51.978;5.646;2023-06-01T09:09:41;23.5;40.6
78694;SHT31;68029;51.978;5.646;2023-06-01T09:12:18;23.6;40.5
78694;SHT31;68029;51.978;5.646;2023-06-01T09:14:48;23.8;41.0
78694;SHT31;68029;51.978;5.646;2023-06-01T09:17:23;23.9;39.4
78694;SHT31;68029;51.978;5.646;2023-06-01T09:19:54;23.9;39.4
78694;SHT31;68029;51.978;5.646;2023-06-01T09:22:24;24.0;39.0
78694;SHT31;68029;51.978;5.646;2023-06-01T09:25:01;24.1;38.6
78694;SHT31;68029;51.978;5.646;2023-06-01T09:27:43;24.1;39.4
78694;SHT31;68029;51.978;5.646;2023-06-01T09:30:13;24.2;38.7
78694;SHT31;68029;51.978;5.646;2023-06-01T09:32:42;24.3;39.1
78694;SHT31;68029;51.978;5.646;2023-06-01T09:35:14;24.4;39.0
78694;SHT31;68029;51.978;5.646;2023-06-01T09:37:55;24.5;38.8
78694;SHT31;68029;51.978;5.646;2023-06-01T09:40:25;24.6;40.3
78694;SHT31;68029;51.978;5.646;2023-06-01T09:42:53;24.8;40.0
78694;SHT31;68029;51.978;5.646;2023-06-01T09:45:23;24.9;37.8
78694;SHT31;68029;51.978;5.646;2023-06-01T09:47:52;25.1;38.6
78694;SHT31;68029;51.978;5.646;2023-06-01T09:50:35;25.2;37.9
78694;SHT31;68029;51.978;5.646;2023-06-01T09:53:05;25.4;38.8
78694;SHT31;68029;51.978;5.646;2023-06-01T09:55:34;25.6;38.3
78694;SHT31;68029;51.978;5.646;2023-06-01T09:58:21;25.8;37.2
78694;SHT31;68029;51.978;5.646;2023-06-01T10:00:51;26.0;36.9
78694;SHT31;68029;51.978;5.646;2023-06-01T10:03:21;26.1;36.5
78694;SHT31;68029;51.978;5.646;2023-06-01T10:05:51;26.1;36.3
78694;SHT31;68029;51.978;5.646;2023-06-01T10:08:21;26.2;36.9
78694;SHT31;68029;51.978;5.646;2023-06-01T10:10:49;26.3;36.2
78694;SHT31;68029;51.978;5.646;2023-06-01T10:13:18;26.4;36.7
78694;SHT31;68029;51.978;5.646;2023-06-01T10:15:49;26.5;35.4
78694;SHT31;68029;51.978;5.646;2023-06-01T10:18:21;26.5;36.0
78694;SHT31;68029;51.978;5.646;2023-06-01T10:20:51;26.6;36.1
78694;SHT31;68029;51.978;5.646;2023-06-01T10:23:20;26.8;36.7
78694;SHT31;68029;51.978;5.646;2023-06-01T10:25:52;26.9;35.4
78694;SHT31;68029;51.978;5.646;2023-06-01T10:28:21;27.1;33.8
78694;SHT31;68029;51.978;5.646;2023-06-01T10:31:37;27.2;33.1
78694;SHT31;68029;51.978;5.646;2023-06-01T10:34:08;27.3;36.1
78694;SHT31;68029;51.978;5.646;2023-06-01T10:37:15;27.4;33.5
78694;SHT31;68029;51.978;5.646;2023-06-01T10:39:44;27.5;33.8
78694;SHT31;68029;51.978;5.646;2023-06-01T10:42:38;27.5;35.1
78694;SHT31;68029;51.978;5.646;2023-06-01T10:45:37;27.5;33.9
78694;SHT31;68029;51.978;5.646;2023-06-01T10:48:08;27.6;32.3
78694;SHT31;68029;51.978;5.646;2023-06-01T10:50:39;27.6;32.9
78694;SHT31;68029;51.978;5.646;2023-06-01T10:53:29;27.6;35.6
78694;SHT31;68029;51.978;5.646;2023-06-01T10:56:21;27.7;33.9
78694;SHT31;68029;51.978;5.646;2023-06-01T10:59:13;27.9;34.4
78694;SHT31;68029;51.978;5.646;2023-06-01T11:01:43;28.0;33.1
78694;SHT31;68029;51.978;5.646;2023-06-01T11:04:13;28.1;33.2
78694;SHT31;68029;51.978;5.646;2023-06-01T11:06:42;28.2;32.1
78694;SHT31;68029;51.978;5.646;2023-06-01T11:09:12;28.2;32.9
78694;SHT31;68029;51.978;5.646;2023-06-01T11:11:58;28.2;32.4
78694;SHT31;68029;51.978;5.646;2023-06-01T11:14:29;28.2;32.3
78694;SHT31;68029;51.978;5.646;2023-06-01T11:17:27;28.2;33.4
78694;SHT31;68029;51.978;5.646;2023-06-01T11:20:01;28.2;32.8
78694;SHT31;68029;51.978;5.646;2023-06-01T11:22:38;28.2;32.7
78694;SHT31;68029;51.978;5.646;2023-06-01T11:25:10;28.3;32.1
78694;SHT31;68029;51.978;5.646;2023-06-01T11:27:44;28.3;32.1
78694;SHT31;68029;51.978;5.646;2023-06-01T11:30:18;28.4;32.2
78694;SHT31;68029;51.978;5.646;2023-06-01T11:32:51;28.4;32.3
78694;SHT31;68029;51.978;5.646;2023-06-01T11:35:22;28.4;32.5
78694;SHT31;68029;51.978;5.646;2023-06-01T11:37:57;28.4;33.3
78694;SHT31;68029;51.978;5.646;2023-06-01T11:40:26;28.4;33.6
78694;SHT31;68029;51.978;5.646;2023-06-01T11:42:54;28.5;33.0
78694;SHT31;68029;51.978;5.646;2023-06-01T11:45:23;28.6;32.1
78694;SHT31;68029;51.978;5.646;2023-06-01T11:47:53;28.6;31.8
78694;SHT31;68029;51.978;5.646;2023-06-01T11:50:23;28.7;32.6
78694;SHT31;68029;51.978;5.646;2023-06-01T11:52:54;28.7;33.1
78694;SHT31;68029;51.978;5.646;2023-06-01T11:55:23;28.7;32.6
78694;SHT31;68029;51.978;5.646;2023-06-01T11:57:53;28.7;33.3
78694;SHT31;68029;51.978;5.646;2023-06-01T12:00:22;28.7;32.9
78694;SHT31;68029;51.978;5.646;2023-06-01T12:03:07;28.7;32.6
78694;SHT31;68029;51.978;5.646;2023-06-01T12:05:40;28.8;31.3
78694;SHT31;68029;51.978;5.646;2023-06-01T12:08:17;28.8;31.6
78694;SHT31;68029;51.978;5.646;2023-06-01T12:10:48;28.8;32.0
78694;SHT31;68029;51.978;5.646;2023-06-01T12:13:19;28.8;32.0
78694;SHT31;68029;51.978;5.646;2023-06-01T12:15:51;28.8;33.4
78694;SHT31;68029;51.978;5.646;2023-06-01T12:18:30;28.8;32.3
78694;SHT31;68029;51.978;5.646;2023-06-01T12:20:59;28.8;33.8
78694;SHT31;68029;51.978;5.646;2023-06-01T12:23:33;28.8;32.6
78694;SHT31;68029;51.978;5.646;2023-06-01T12:26:03;28.9;33.3
78694;SHT31;68029;51.978;5.646;2023-06-01T12:28:49;28.9;31.9
78694;SHT31;68029;51.978;5.646;2023-06-01T12:31:21;29.0;32.0
78694;SHT31;68029;51.978;5.646;2023-06-01T12:33:50;29.0;32.6
78694;SHT31;68029;51.978;5.646;2023-06-01T12:36:31;29.0;33.1
78694;SHT31;68029;51.978;5.646;2023-06-01T12:39:02;29.0;32.5
78694;SHT31;68029;51.978;5.646;2023-06-01T12:41:32;29.0;31.6
78694;SHT31;68029;51.978;5.646;2023-06-01T12:44:00;29.0;32.5
78694;SHT31;68029;51.978;5.646;2023-06-01T12:46:31;28.9;32.6
78694;SHT31;68029;51.978;5.646;2023-06-01T12:49:15;28.9;31.8
78694;SHT31;68029;51.978;5.646;2023-06-01T12:51:46;28.8;32.4
78694;SHT31;68029;51.978;5.646;2023-06-01T12:54:14;28.8;32.1
78694;SHT31;68029;51.978;5.646;2023-06-01T12:56:44;28.8;32.2
78694;SHT31;68029;51.978;5.646;2023-06-01T12:59:12;28.7;32.0
78694;SHT31;68029;51.978;5.646;2023-06-01T13:01:41;28.7;33.3
78694;SHT31;68029;51.978;5.646;2023-06-01T13:04:10;28.6;34.0
78694;SHT31;68029;51.978;5.646;2023-06-01T13:06:39;28.6;33.2
78694;SHT31;68029;51.978;5.646;2023-06-01T13:09:07;28.6;33.1
78694;SHT31;68029;51.978;5.646;2023-06-01T13:11:37;28.6;33.2
78694;SHT31;68029;51.978;5.646;2023-06-01T13:14:08;28.5;33.5
78694;SHT31;68029;51.978;5.646;2023-06-01T13:16:36;28.5;33.7
78694;SHT31;68029;51.978;5.646;2023-06-01T13:19:06;28.4;34.1
78694;SHT31;68029;51.978;5.646;2023-06-01T13:21:35;28.4;34.3
78694;SHT31;68029;51.978;5.646;2023-06-01T13:24:04;28.4;34.0
78694;SHT31;68029;51.978;5.646;2023-06-01T13:26:34;28.3;33.5
78694;SHT31;68029;51.978;5.646;2023-06-01T13:29:02;28.2;33.7
78694;SHT31;68029;51.978;5.646;2023-06-01T13:31:32;28.1;34.5
78694;SHT31;68029;51.978;5.646;2023-06-01T13:34:03;28.0;34.0
78694;SHT31;68029;51.978;5.646;2023-06-01T13:36:32;27.9;34.7
78694;SHT31;68029;51.978;5.646;2023-06-01T13:39:01;27.8;33.9
78694;SHT31;68029;51.978;5.646;2023-06-01T13:41:31;27.7;34.5
78694;SHT31;68029;51.978;5.646;2023-06-01T13:44:00;27.6;34.8
78694;SHT31;68029;51.978;5.646;2023-06-01T13:46:29;27.6;34.6
78694;SHT31;68029;51.978;5.646;2023-06-01T13:48:57;27.5;34.3
78694;SHT31;68029;51.978;5.646;2023-06-01T13:51:26;27.4;34.6
78694;SHT31;68029;51.978;5.646;2023-06-01T13:53:55;27.2;35.2
78694;SHT31;68029;51.978;5.646;2023-06-01T13:56:23;27.1;35.0
78694;SHT31;68029;51.978;5.646;2023-06-01T13:58:54;27.0;35.4
78694;SHT31;68029;51.978;5.646;2023-06-01T14:01:23;26.9;35.8
78694;SHT31;68029;51.978;5.646;2023-06-01T14:03:53;26.9;35.7
78694;SHT31;68029;51.978;5.646;2023-06-01T14:06:21;26.8;35.7
78694;SHT31;68029;51.978;5.646;2023-06-01T14:08:50;26.7;36.0
78694;SHT31;68029;51.978;5.646;2023-06-01T14:11:19;26.6;36.1
78694;SHT31;68029;51.978;5.646;2023-06-01T14:13:48;26.5;36.4
78694;SHT31;68029;51.978;5.646;2023-06-01T14:16:17;26.4;36.8
78694;SHT31;68029;51.978;5.646;2023-06-01T14:18:45;26.3;36.4
78694;SHT31;68029;51.978;5.646;2023-06-01T14:21:16;26.3;36.4
78694;SHT31;68029;51.978;5.646;2023-06-01T14:23:44;26.2;36.0
78694;SHT31;68029;51.978;5.646;2023-06-01T14:26:13;26.1;37.2
78694;SHT31;68029;51.978;5.646;2023-06-01T14:28:41;26.1;37.5
78694;SHT31;68029;51.978;5.646;2023-06-01T14:31:10;26.0;36.2
78694;SHT31;68029;51.978;5.646;2023-06-01T14:33:38;25.9;36.7
78694;SHT31;68029;51.978;5.646;2023-06-01T14:36:07;25.8;37.4
78694;SHT31;68029;51.978;5.646;2023-06-01T14:38:36;25.7;36.7
78694;SHT31;68029;51.978;5.646;2023-06-01T14:41:05;25.5;36.9
78694;SHT31;68029;51.978;5.646;2023-06-01T14:43:34;25.3;37.5
78694;SHT31;68029;51.978;5.646;2023-06-01T14:46:02;25.1;38.6
78694;SHT31;68029;51.978;5.646;2023-06-01T14:48:31;24.9;38.6
78694;SHT31;68029;51.978;5.646;2023-06-01T14:50:59;24.7;38.9
78694;SHT31;68029;51.978;5.646;2023-06-01T14:53:28;24.4;39.6
78694;SHT31;68029;51.978;5.646;2023-06-01T14:55:56;24.2;39.5
78694;SHT31;68029;51.978;5.646;2023-06-01T14:58:25;24.0;39.6
78694;SHT31;68029;51.978;5.646;2023-06-01T15:00:53;23.8;39.8
78694;SHT31;68029;51.978;5.646;2023-06-01T15:03:22;23.6;40.6
78694;SHT31;68029;51.978;5.646;2023-06-01T15:05:50;23.3;41.1
78694;SHT31;68029;51.978;5.646;2023-06-01T15:08:19;23.1;42.0
78694;SHT31;68029;51.978;5.646;2023-06-01T15:10:51;23.0;41.7
78694;SHT31;68029;51.978;5.646;2023-06-01T15:13:21;22.9;42.6
78694;SHT31;68029;51.978;5.646;2023-06-01T15:15:49;22.8;42.7
78694;SHT31;68029;51.978;5.646;2023-06-01T15:18:18;22.7;42.9
78694;SHT31;68029;51.978;5.646;2023-06-01T15:20:46;22.6;43.3
78694;SHT31;68029;51.978;5.646;2023-06-01T15:23:18;22.6;44.0
78694;SHT31;68029;51.978;5.646;2023-06-01T15:25:47;22.5;43.5
78694;SHT31;68029;51.978;5.646;2023-06-01T15:28:16;22.4;43.7
78694;SHT31;68029;51.978;5.646;2023-06-01T15:30:44;22.4;43.9
78694;SHT31;68029;51.978;5.646;2023-06-01T15:33:13;22.3;43.8
78694;SHT31;68029;51.978;5.646;2023-06-01T15:35:43;22.3;43.0
78694;SHT31;68029;51.978;5.646;2023-06-01T15:38:11;22.2;43.3
78694;SHT31;68029;51.978;5.646;2023-06-01T15:40:40;22.2;43.2
78694;SHT31;68029;51.978;5.646;2023-06-01T15:43:08;22.1;43.5
78694;SHT31;68029;51.978;5.646;2023-06-01T15:45:37;22.1;44.0
78694;SHT31;68029;51.978;5.646;2023-06-01T15:48:05;22.0;43.7
78694;SHT31;68029;51.978;5.646;2023-06-01T15:50:34;22.0;43.9
78694;SHT31;68029;51.978;5.646;2023-06-01T15:53:06;21.9;44.3
78694;SHT31;68029;51.978;5.646;2023-06-01T15:55:35;21.9;44.0
78694;SHT31;68029;51.978;5.646;2023-06-01T15:58:05;21.8;43.4
78694;SHT31;68029;51.978;5.646;2023-06-01T16:00:34;21.7;44.0
78694;SHT31;68029;51.978;5.646;2023-06-01T16:03:02;21.7;43.6
78694;SHT31;68029;51.978;5.646;2023-06-01T16:05:31;21.6;44.1
78694;SHT31;68029;51.978;5.646;2023-06-01T16:07:59;21.6;43.9
78694;SHT31;68029;51.978;5.646;2023-06-01T16:10:28;21.5;44.2
78694;SHT31;68029;51.978;5.646;2023-06-01T16:12:56;21.4;44.7
78694;SHT31;68029;51.978;5.646;2023-06-01T16:15:25;21.4;45.9
78694;SHT31;68029;51.978;5.646;2023-06-01T16:17:53;21.3;45.2
78694;SHT31;68029;51.978;5.646;2023-06-01T16:20:22;21.3;45.0
78694;SHT31;68029;51.978;5.646;2023-06-01T16:22:50;21.3;45.4
78694;SHT31;68029;51.978;5.646;2023-06-01T16:25:19;21.2;44.0
78694;SHT31;68029;51.978;5.646;2023-06-01T16:27:52;21.2;44.1